createdAt,value
2018-05-15T00:00:28.173Z,0.00
2018-05-15T00:01:28.206Z,0.00
2018-05-15T00:02:28.165Z,0.00
2018-05-15T00:03:28.175Z,0.00
2018-05-15T00:04:28.196Z,0.00
2018-05-15T00:05:28.173Z,0.00
2018-05-15T00:06:28.180Z,0.00
2018-05-15T00:07:28.190Z,0.00
2018-05-15T00:08:28.170Z,0.00
2018-05-15T00:09:28.171Z,0.00
2018-05-15T00:10:28.197Z,0.00
2018-05-15T00:11:28.455Z,0.00
2018-05-15T00:12:28.187Z,0.00
2018-05-15T00:13:28.232Z,0.00
2018-05-15T00:14:28.234Z,0.00
2018-05-15T00:15:28.197Z,0.00
2018-05-15T00:16:28.174Z,0.00
2018-05-15T00:17:28.178Z,0.00
2018-05-15T00:18:28.151Z,0.00
2018-05-15T00:19:28.164Z,0.00
2018-05-15T00:20:28.158Z,0.00
2018-05-15T00:21:28.176Z,0.00
2018-05-15T00:22:28.171Z,0.00
2018-05-15T00:23:28.161Z,0.00
2018-05-15T00:24:28.166Z,0.00
2018-05-15T00:25:28.171Z,0.00
2018-05-15T00:26:28.171Z,0.00
2018-05-15T00:27:28.197Z,0.00
2018-05-15T00:28:28.171Z,0.00
2018-05-15T00:29:28.178Z,0.00
2018-05-15T00:30:28.171Z,0.00
2018-05-15T00:31:28.468Z,0.00
2018-05-15T00:32:28.180Z,0.00
2018-05-15T00:33:28.234Z,0.00
2018-05-15T00:34:28.177Z,0.00
2018-05-15T00:35:28.204Z,0.00
2018-05-15T00:36:28.185Z,0.00
2018-05-15T00:37:28.182Z,0.00
2018-05-15T00:38:28.199Z,0.00
2018-05-15T00:39:34.251Z,0.00
2018-05-15T00:40:27.829Z,0.00
2018-05-15T00:41:28.240Z,0.00
2018-05-15T00:42:28.480Z,0.00
2018-05-15T00:43:28.191Z,0.00
2018-05-15T00:44:28.178Z,0.00
2018-05-15T00:45:28.180Z,0.00
2018-05-15T00:46:28.180Z,0.00
2018-05-15T00:47:28.198Z,0.00
2018-05-15T00:48:28.173Z,0.00
2018-05-15T00:49:28.169Z,0.00
2018-05-15T00:50:28.173Z,0.00
2018-05-15T00:51:28.172Z,0.00
2018-05-15T00:52:27.729Z,0.00
2018-05-15T00:53:28.204Z,0.00
2018-05-15T00:54:27.775Z,0.00
2018-05-15T00:55:28.458Z,0.00
2018-05-15T00:56:28.188Z,0.00
2018-05-15T00:57:28.208Z,0.00
2018-05-15T00:58:28.193Z,0.00
2018-05-15T00:59:28.189Z,0.00
2018-05-15T01:00:28.234Z,0.00
2018-05-15T01:01:28.200Z,0.00
2018-05-15T01:02:28.477Z,0.00
2018-05-15T01:03:28.236Z,0.00
2018-05-15T01:04:28.208Z,0.00
2018-05-15T01:05:28.184Z,0.00
2018-05-15T01:06:28.193Z,0.00
2018-05-15T01:07:28.193Z,0.00
2018-05-15T01:08:28.172Z,0.00
2018-05-15T01:09:28.215Z,0.00
2018-05-15T01:10:28.226Z,0.00
2018-05-15T01:11:28.221Z,0.00
2018-05-15T01:12:30.056Z,0.00
2018-05-15T01:13:28.246Z,0.00
2018-05-15T01:14:28.181Z,0.00
2018-05-15T01:15:28.230Z,0.00
2018-05-15T01:16:28.178Z,0.00
2018-05-15T01:17:27.878Z,0.00
2018-05-15T01:18:28.256Z,0.00
2018-05-15T01:19:28.229Z,0.00
2018-05-15T01:20:28.198Z,0.00
2018-05-15T01:21:28.171Z,0.00
2018-05-15T01:22:28.484Z,0.00
2018-05-15T01:23:28.553Z,0.00
2018-05-15T01:24:28.480Z,0.00
2018-05-15T01:25:28.191Z,0.00
2018-05-15T01:26:28.172Z,0.00
2018-05-15T01:27:28.193Z,0.00
2018-05-15T01:28:29.642Z,0.00
2018-05-15T01:29:28.197Z,0.00
2018-05-15T01:30:28.214Z,0.00
2018-05-15T01:31:28.182Z,0.00
2018-05-15T01:32:28.193Z,0.00
2018-05-15T01:33:28.212Z,0.00
2018-05-15T01:34:28.287Z,0.00
2018-05-15T01:35:28.213Z,0.00
2018-05-15T01:36:28.199Z,0.00
2018-05-15T01:37:28.236Z,0.00
2018-05-15T01:38:28.258Z,0.00
2018-05-15T01:39:28.291Z,0.00
2018-05-15T01:40:28.492Z,0.00
2018-05-15T01:41:28.210Z,0.00
2018-05-15T01:42:28.448Z,0.00
2018-05-15T01:43:28.374Z,0.00
2018-05-15T01:44:28.340Z,0.00
2018-05-15T01:45:28.208Z,0.00
2018-05-15T01:46:28.186Z,0.00
2018-05-15T01:47:28.199Z,0.00
2018-05-15T01:48:28.216Z,0.00
2018-05-15T01:49:28.209Z,0.00
2018-05-15T01:50:28.184Z,0.00
2018-05-15T01:51:28.238Z,0.00
2018-05-15T01:52:30.039Z,0.00
2018-05-15T01:53:28.219Z,0.00
2018-05-15T01:54:28.230Z,0.00
2018-05-15T01:55:28.246Z,0.00
2018-05-15T01:56:28.222Z,0.00
2018-05-15T01:57:27.955Z,0.00
2018-05-15T01:58:28.258Z,0.00
2018-05-15T01:59:28.278Z,0.00
2018-05-15T02:00:28.269Z,0.00
2018-05-15T02:01:28.252Z,0.00
2018-05-15T02:02:28.250Z,0.00
2018-05-15T02:03:28.257Z,0.00
2018-05-15T02:04:28.257Z,0.00
2018-05-15T02:05:28.293Z,0.00
2018-05-15T02:06:28.296Z,0.00
2018-05-15T02:07:28.327Z,0.00
2018-05-15T02:08:28.251Z,0.00
2018-05-15T02:09:28.477Z,0.00
2018-05-15T02:10:28.330Z,0.00
2018-05-15T02:11:28.480Z,0.00
2018-05-15T02:12:28.189Z,0.00
2018-05-15T02:13:28.236Z,0.00
2018-05-15T02:14:28.186Z,0.00
2018-05-15T02:15:28.175Z,0.00
2018-05-15T02:16:28.247Z,0.00
2018-05-15T02:17:28.466Z,0.00
2018-05-15T02:18:28.009Z,0.00
2018-05-15T02:19:28.183Z,0.00
2018-05-15T02:20:28.495Z,0.00
2018-05-15T02:21:28.465Z,0.00
2018-05-15T02:22:28.329Z,0.00
2018-05-15T02:23:28.466Z,0.00
2018-05-15T02:24:28.332Z,0.00
2018-05-15T02:25:28.333Z,0.00
2018-05-15T02:26:28.021Z,0.00
2018-05-15T02:27:28.473Z,0.00
2018-05-15T02:28:28.338Z,0.00
2018-05-15T02:29:28.335Z,0.00
2018-05-15T02:30:28.436Z,0.00
2018-05-15T02:31:28.357Z,0.00
2018-05-15T02:32:28.352Z,0.00
2018-05-15T02:33:28.315Z,0.00
2018-05-15T02:34:28.270Z,0.00
2018-05-15T02:35:28.265Z,0.00
2018-05-15T02:36:28.266Z,0.00
2018-05-15T02:37:28.292Z,0.00
2018-05-15T02:38:28.295Z,0.00
2018-05-15T02:39:28.315Z,0.00
2018-05-15T02:40:28.476Z,0.00
2018-05-15T02:41:28.338Z,0.00
2018-05-15T02:42:28.331Z,0.00
2018-05-15T02:43:28.326Z,0.00
2018-05-15T02:44:28.357Z,0.00
2018-05-15T02:45:28.351Z,0.00
2018-05-15T02:46:28.295Z,0.00
2018-05-15T02:47:28.334Z,0.00
2018-05-15T02:48:28.347Z,0.00
2018-05-15T02:49:28.342Z,0.00
2018-05-15T02:50:28.391Z,0.00
2018-05-15T02:51:28.405Z,0.00
2018-05-15T02:52:28.375Z,0.00
2018-05-15T02:53:28.411Z,0.00
2018-05-15T02:54:28.480Z,0.00
2018-05-15T02:55:28.347Z,0.00
2018-05-15T02:56:28.442Z,0.00
2018-05-15T02:57:28.288Z,0.00
2018-05-15T02:58:28.297Z,0.00
2018-05-15T02:59:28.275Z,0.00
2018-05-15T03:00:28.309Z,0.00
2018-05-15T03:01:28.271Z,0.00
2018-05-15T03:02:28.403Z,0.00
2018-05-15T03:03:28.342Z,0.00
2018-05-15T03:04:28.356Z,0.00
2018-05-15T03:05:28.449Z,0.00
2018-05-15T03:06:28.446Z,0.00
2018-05-15T03:07:28.443Z,0.00
2018-05-15T03:08:28.495Z,0.00
2018-05-15T03:09:27.705Z,0.00
2018-05-15T03:10:28.438Z,0.00
2018-05-15T03:11:28.411Z,0.00
2018-05-15T03:12:30.262Z,0.00
2018-05-15T03:13:28.504Z,0.00
2018-05-15T03:14:28.497Z,0.00
2018-05-15T03:15:28.487Z,0.00
2018-05-15T03:16:28.481Z,0.00
2018-05-15T03:17:28.416Z,0.00
2018-05-15T03:18:28.501Z,0.00
2018-05-15T03:19:28.478Z,0.00
2018-05-15T03:20:28.513Z,0.00
2018-05-15T03:21:28.499Z,0.00
2018-05-15T03:22:28.500Z,0.00
2018-05-15T03:23:34.244Z,0.00
2018-05-15T03:24:28.376Z,0.00
2018-05-15T03:25:28.410Z,0.00
2018-05-15T03:26:28.486Z,0.00
2018-05-15T03:27:28.425Z,0.00
2018-05-15T03:28:28.473Z,0.00
2018-05-15T03:29:28.760Z,0.00
2018-05-15T03:30:28.749Z,0.00
2018-05-15T03:31:28.742Z,0.00
2018-05-15T03:32:28.770Z,0.00
2018-05-15T03:33:28.758Z,0.00
2018-05-15T03:34:30.755Z,0.00
2018-05-15T03:35:28.757Z,0.00
2018-05-15T03:36:28.772Z,0.00
2018-05-15T03:37:28.769Z,0.00
2018-05-15T03:38:28.994Z,0.00
2018-05-15T03:39:28.735Z,0.00
2018-05-15T03:40:28.746Z,0.00
2018-05-15T03:41:28.796Z,0.00
2018-05-15T03:42:28.755Z,0.00
2018-05-15T03:43:28.793Z,0.00
2018-05-15T03:44:28.801Z,0.00
2018-05-15T03:45:28.737Z,0.00
2018-05-15T03:46:28.788Z,0.00
2018-05-15T03:47:28.791Z,5.63
2018-05-15T03:48:28.801Z,5.63
2018-05-15T03:49:28.804Z,5.63
2018-05-15T03:50:28.826Z,5.63
2018-05-15T03:51:28.814Z,5.63
2018-05-15T03:52:28.817Z,5.63
2018-05-15T03:53:28.769Z,5.63
2018-05-15T03:54:28.806Z,5.63
2018-05-15T03:55:28.769Z,5.63
2018-05-15T03:56:28.762Z,5.63
2018-05-15T03:57:28.763Z,5.63
2018-05-15T03:58:28.786Z,5.63
2018-05-15T03:59:28.800Z,5.63
2018-05-15T04:00:28.814Z,5.63
2018-05-15T04:01:28.239Z,5.63
2018-05-15T04:02:28.804Z,5.63
2018-05-15T04:03:28.787Z,11.25
2018-05-15T04:04:28.802Z,11.25
2018-05-15T04:05:28.765Z,11.25
2018-05-15T04:06:28.750Z,11.25
2018-05-15T04:07:28.739Z,11.25
2018-05-15T04:08:28.732Z,11.25
2018-05-15T04:09:28.750Z,11.25
2018-05-15T04:10:28.735Z,11.25
2018-05-15T04:11:28.743Z,11.25
2018-05-15T04:12:28.736Z,11.25
2018-05-15T04:13:28.800Z,11.25
2018-05-15T04:14:28.791Z,11.25
2018-05-15T04:15:28.792Z,11.25
2018-05-15T04:16:28.749Z,16.88
2018-05-15T04:17:28.744Z,16.88
2018-05-15T04:18:28.176Z,16.88
2018-05-15T04:19:28.790Z,16.88
2018-05-15T04:20:28.769Z,16.88
2018-05-15T04:21:28.793Z,16.88
2018-05-15T04:22:28.757Z,16.88
2018-05-15T04:23:28.815Z,16.88
2018-05-15T04:24:28.766Z,16.88
2018-05-15T04:25:29.045Z,16.88
2018-05-15T04:26:28.787Z,16.88
2018-05-15T04:27:28.816Z,16.88
2018-05-15T04:28:28.871Z,16.88
2018-05-15T04:29:28.752Z,16.88
2018-05-15T04:30:28.801Z,16.88
2018-05-15T04:31:28.822Z,22.50
2018-05-15T04:32:28.804Z,22.50
2018-05-15T04:33:29.038Z,22.50
2018-05-15T04:34:28.735Z,22.50
2018-05-15T04:35:28.741Z,22.50
2018-05-15T04:36:28.736Z,22.50
2018-05-15T04:37:28.744Z,22.50
2018-05-15T04:38:28.768Z,22.50
2018-05-15T04:39:28.750Z,22.50
2018-05-15T04:40:28.742Z,22.50
2018-05-15T04:41:28.745Z,22.50
2018-05-15T04:42:28.791Z,22.50
2018-05-15T04:43:28.986Z,22.50
2018-05-15T04:44:28.744Z,22.50
2018-05-15T04:45:28.754Z,22.50
2018-05-15T04:46:28.808Z,28.13
2018-05-15T04:47:28.757Z,28.13
2018-05-15T04:48:28.750Z,28.13
2018-05-15T04:49:30.823Z,28.13
2018-05-15T04:50:28.811Z,28.13
2018-05-15T04:51:29.038Z,28.13
2018-05-15T04:52:28.805Z,28.13
2018-05-15T04:53:31.072Z,28.13
2018-05-15T04:54:28.808Z,28.13
2018-05-15T04:55:28.818Z,28.13
2018-05-15T04:56:28.825Z,28.13
2018-05-15T04:57:28.730Z,28.13
2018-05-15T04:58:28.747Z,28.13
2018-05-15T04:59:28.749Z,28.13
2018-05-15T05:00:28.757Z,28.13
2018-05-15T05:01:28.769Z,28.13
2018-05-15T05:02:28.752Z,28.13
2018-05-15T05:03:28.768Z,33.75
2018-05-15T05:04:28.809Z,33.75
2018-05-15T05:05:29.068Z,33.75
2018-05-15T05:06:28.246Z,33.75
2018-05-15T05:07:28.813Z,33.75
2018-05-15T05:08:28.830Z,33.75
2018-05-15T05:09:28.857Z,33.75
2018-05-15T05:10:29.210Z,33.75
2018-05-15T05:11:28.806Z,33.75
2018-05-15T05:12:28.753Z,33.75
2018-05-15T05:13:28.811Z,33.75
2018-05-15T05:14:29.026Z,33.75
2018-05-15T05:15:28.825Z,33.75
2018-05-15T05:16:29.068Z,33.75
2018-05-15T05:17:28.315Z,33.75
2018-05-15T05:18:29.125Z,33.75
2018-05-15T05:19:28.575Z,33.75
2018-05-15T05:20:29.206Z,33.75
2018-05-15T05:21:28.839Z,33.75
2018-05-15T05:22:28.810Z,33.75
2018-05-15T05:23:28.828Z,33.75
2018-05-15T05:24:28.834Z,33.75
2018-05-15T05:25:29.071Z,33.75
2018-05-15T05:26:29.071Z,33.75
2018-05-15T05:27:28.267Z,39.38
2018-05-15T05:28:28.828Z,39.38
2018-05-15T05:29:29.081Z,39.38
2018-05-15T05:30:28.753Z,39.38
2018-05-15T05:31:29.385Z,39.38
2018-05-15T05:32:28.571Z,39.38
2018-05-15T05:33:28.786Z,39.38
2018-05-15T05:34:29.072Z,39.38
2018-05-15T05:35:29.075Z,39.38
2018-05-15T05:36:29.365Z,39.38
2018-05-15T05:37:29.146Z,39.38
2018-05-15T05:38:28.772Z,39.38
2018-05-15T05:39:28.794Z,39.38
2018-05-15T05:40:29.082Z,39.38
2018-05-15T05:41:28.814Z,39.38
2018-05-15T05:42:28.825Z,39.38
2018-05-15T05:43:28.822Z,39.38
2018-05-15T05:44:28.811Z,39.38
2018-05-15T05:45:28.800Z,39.38
2018-05-15T05:46:29.188Z,39.38
2018-05-15T05:47:29.084Z,39.38
2018-05-15T05:48:29.397Z,39.38
2018-05-15T05:49:27.393Z,39.38
2018-05-15T05:50:29.135Z,39.38
2018-05-15T05:51:28.752Z,39.38
2018-05-15T05:52:28.810Z,39.38
2018-05-15T05:53:28.785Z,39.38
2018-05-15T05:54:29.079Z,39.38
2018-05-15T05:55:29.072Z,39.38
2018-05-15T05:56:29.372Z,39.38
2018-05-15T05:57:29.080Z,39.38
2018-05-15T05:58:28.355Z,45.00
2018-05-15T05:59:29.083Z,45.00
2018-05-15T06:00:28.818Z,45.00
2018-05-15T06:01:29.063Z,45.00
2018-05-15T06:02:28.591Z,45.00
2018-05-15T06:03:29.075Z,45.00
2018-05-15T06:04:28.823Z,45.00
2018-05-15T06:05:29.085Z,45.00
2018-05-15T06:06:29.031Z,45.00
2018-05-15T06:07:28.843Z,45.00
2018-05-15T06:08:28.807Z,45.00
2018-05-15T06:09:29.084Z,45.00
2018-05-15T06:10:28.796Z,45.00
2018-05-15T06:11:29.086Z,45.00
2018-05-15T06:12:28.879Z,45.00
2018-05-15T06:13:29.440Z,45.00
2018-05-15T06:14:29.499Z,45.00
2018-05-15T06:15:29.086Z,45.00
2018-05-15T06:16:29.087Z,45.00
2018-05-15T06:17:29.563Z,45.00
2018-05-15T06:18:29.091Z,45.00
2018-05-15T06:19:28.787Z,45.00
2018-05-15T06:21:28.792Z,45.00
2018-05-15T06:22:28.822Z,45.00
2018-05-15T06:23:29.094Z,16.88
2018-05-15T06:24:29.081Z,56.25
2018-05-15T06:25:29.109Z,56.25
2018-05-15T06:26:29.377Z,56.25
2018-05-15T06:27:29.652Z,56.25
2018-05-15T06:28:28.830Z,56.25
2018-05-15T06:29:29.125Z,56.25
2018-05-15T06:30:29.072Z,56.25
2018-05-15T06:31:29.088Z,56.25
2018-05-15T06:32:28.410Z,56.25
2018-05-15T06:33:28.819Z,56.25
2018-05-15T06:34:28.359Z,56.25
2018-05-15T06:35:29.095Z,56.25
2018-05-15T06:36:29.103Z,56.25
2018-05-15T06:37:28.589Z,56.25
2018-05-15T06:38:29.667Z,56.25
2018-05-15T06:39:29.080Z,56.25
2018-05-15T06:40:36.096Z,56.25
2018-05-15T06:41:29.083Z,56.25
2018-05-15T06:42:28.885Z,56.25
2018-05-15T06:43:28.815Z,56.25
2018-05-15T06:44:29.120Z,56.25
2018-05-15T06:45:28.834Z,61.88
2018-05-15T06:46:30.648Z,61.88
2018-05-15T06:47:28.882Z,61.88
2018-05-15T06:48:28.553Z,61.88
2018-05-15T06:49:28.889Z,61.88
2018-05-15T06:50:28.845Z,61.88
2018-05-15T06:51:29.555Z,61.88
2018-05-15T06:52:28.562Z,61.88
2018-05-15T06:53:29.157Z,61.88
2018-05-15T06:54:28.908Z,61.88
2018-05-15T06:55:28.883Z,61.88
2018-05-15T06:56:29.439Z,61.88
2018-05-15T06:57:29.413Z,61.88
2018-05-15T06:58:29.081Z,61.88
2018-05-15T06:59:28.871Z,61.88
2018-05-15T07:00:28.865Z,61.88
2018-05-15T07:01:29.168Z,61.88
2018-05-15T07:02:29.151Z,61.88
2018-05-15T07:03:29.873Z,61.88
2018-05-15T07:04:28.864Z,61.88
2018-05-15T07:05:29.077Z,61.88
2018-05-15T07:06:29.139Z,61.88
2018-05-15T07:07:29.445Z,61.88
2018-05-15T07:08:29.107Z,61.88
2018-05-15T07:09:29.154Z,61.88
2018-05-15T07:10:29.165Z,61.88
2018-05-15T07:11:29.091Z,61.88
2018-05-15T07:12:29.058Z,61.88
2018-05-15T07:13:28.885Z,61.88
2018-05-15T07:14:29.085Z,61.88
2018-05-15T07:15:28.859Z,61.88
2018-05-15T07:16:28.517Z,67.50
2018-05-15T07:17:29.156Z,67.50
2018-05-15T07:18:29.178Z,67.50
2018-05-15T07:19:29.185Z,67.50
2018-05-15T07:20:29.392Z,67.50
2018-05-15T07:21:29.113Z,67.50
2018-05-15T07:22:28.964Z,67.50
2018-05-15T07:23:29.361Z,67.50
2018-05-15T07:24:28.998Z,67.50
2018-05-15T07:25:29.115Z,67.50
2018-05-15T07:26:29.262Z,67.50
2018-05-15T07:27:29.534Z,67.50
2018-05-15T07:28:28.891Z,67.50
2018-05-15T07:29:29.427Z,67.50
2018-05-15T07:30:29.014Z,67.50
2018-05-15T07:31:29.422Z,67.50
2018-05-15T07:32:29.134Z,67.50
2018-05-15T07:33:28.499Z,67.50
2018-05-15T07:34:28.871Z,67.50
2018-05-15T07:35:28.849Z,67.50
2018-05-15T07:36:28.905Z,67.50
2018-05-15T07:37:30.653Z,67.50
2018-05-15T07:38:29.137Z,67.50
2018-05-15T07:39:28.929Z,67.50
2018-05-15T07:40:29.160Z,67.50
2018-05-15T07:41:29.421Z,67.50
2018-05-15T07:42:29.127Z,67.50
2018-05-15T07:43:29.113Z,67.50
2018-05-15T07:44:28.970Z,73.13
2018-05-15T07:45:29.525Z,67.50
2018-05-15T07:46:31.629Z,67.50
2018-05-15T07:47:28.977Z,73.13
2018-05-15T07:48:29.566Z,67.50
2018-05-15T07:49:29.080Z,67.50
2018-05-15T07:50:29.091Z,73.13
2018-05-15T07:51:29.103Z,73.13
2018-05-15T07:52:29.186Z,73.13
2018-05-15T07:53:29.556Z,73.13
2018-05-15T07:54:35.357Z,73.13
2018-05-15T07:55:34.891Z,73.13
2018-05-15T07:56:29.572Z,73.13
2018-05-15T07:57:29.130Z,73.13
2018-05-15T07:58:28.933Z,73.13
2018-05-15T07:59:29.651Z,73.13
2018-05-15T08:00:29.430Z,73.13
2018-05-15T08:01:29.432Z,73.13
2018-05-15T08:02:29.746Z,73.13
2018-05-15T08:03:29.133Z,73.13
2018-05-15T08:04:29.223Z,73.13
2018-05-15T08:05:28.991Z,73.13
2018-05-15T08:06:28.847Z,73.13
2018-05-15T08:07:28.865Z,73.13
2018-05-15T08:08:29.413Z,73.13
2018-05-15T08:09:29.456Z,73.13
2018-05-15T08:10:29.376Z,73.13
2018-05-15T08:11:28.851Z,73.13
2018-05-15T08:12:28.870Z,73.13
2018-05-15T08:13:29.130Z,73.13
2018-05-15T08:14:28.878Z,78.75
2018-05-15T08:15:29.614Z,78.75
2018-05-15T08:16:29.453Z,78.75
2018-05-15T08:17:29.316Z,78.75
2018-05-15T08:18:28.994Z,78.75
2018-05-15T08:19:29.438Z,78.75
2018-05-15T08:20:29.495Z,78.75
2018-05-15T08:21:28.964Z,78.75
2018-05-15T08:22:29.508Z,78.75
2018-05-15T08:23:28.892Z,78.75
2018-05-15T08:24:28.996Z,78.75
2018-05-15T08:25:29.052Z,78.75
2018-05-15T08:26:29.190Z,78.75
2018-05-15T08:27:29.163Z,78.75
2018-05-15T08:28:29.746Z,78.75
2018-05-15T08:29:29.091Z,78.75
2018-05-15T08:30:28.890Z,84.38
2018-05-15T08:31:29.096Z,84.38
2018-05-15T08:32:29.534Z,84.38
2018-05-15T08:33:30.972Z,84.38
2018-05-15T08:34:29.620Z,84.38
2018-05-15T08:35:29.523Z,90.00
2018-05-15T08:36:29.517Z,90.00
2018-05-15T08:37:29.703Z,90.00
2018-05-15T08:38:28.926Z,90.00
2018-05-15T08:39:29.141Z,90.00
2018-05-15T08:40:29.762Z,90.00
2018-05-15T08:41:29.262Z,90.00
2018-05-15T08:42:30.012Z,90.00
2018-05-15T08:43:29.039Z,90.00
2018-05-15T08:44:29.248Z,90.00
2018-05-15T08:45:29.507Z,90.00
2018-05-15T08:46:29.594Z,90.00
2018-05-15T08:47:29.086Z,90.00
2018-05-15T08:48:29.077Z,90.00
2018-05-15T08:49:28.958Z,90.00
2018-05-15T08:50:29.011Z,90.00
2018-05-15T08:51:29.783Z,95.63
2018-05-15T08:52:29.542Z,90.00
2018-05-15T08:53:29.222Z,90.00
2018-05-15T08:54:28.997Z,90.00
2018-05-15T08:55:29.693Z,90.00
2018-05-15T08:56:29.670Z,90.00
2018-05-15T08:57:29.447Z,90.00
2018-05-15T08:58:29.576Z,90.00
2018-05-15T08:59:28.724Z,90.00
2018-05-15T09:00:29.155Z,95.63
2018-05-15T09:01:29.163Z,95.63
2018-05-15T09:02:29.659Z,95.63
2018-05-15T09:03:29.459Z,90.00
2018-05-15T09:04:29.473Z,95.63
2018-05-15T09:05:29.666Z,95.63
2018-05-15T09:06:29.427Z,95.63
2018-05-15T09:07:29.157Z,95.63
2018-05-15T09:08:29.441Z,95.63
2018-05-15T09:09:29.183Z,95.63
2018-05-15T09:10:29.668Z,95.63
2018-05-15T09:11:28.960Z,95.63
2018-05-15T09:12:29.459Z,95.63
2018-05-15T09:13:29.148Z,95.63
2018-05-15T09:14:29.617Z,95.63
2018-05-15T09:15:29.679Z,95.63
2018-05-15T09:16:28.992Z,95.63
2018-05-15T09:17:29.058Z,95.63
2018-05-15T09:18:29.058Z,95.63
2018-05-15T09:19:29.746Z,95.63
2018-05-15T09:20:29.192Z,95.63
2018-05-15T09:21:29.696Z,95.63
2018-05-15T09:22:28.965Z,95.63
2018-05-15T09:23:29.529Z,95.63
2018-05-15T09:25:35.659Z,95.63
2018-05-15T09:26:29.197Z,95.63
2018-05-15T09:27:29.203Z,95.63
2018-05-15T09:28:29.357Z,95.63
2018-05-15T09:29:29.229Z,95.63
2018-05-15T09:30:29.227Z,106.88
2018-05-15T09:31:29.461Z,101.25
2018-05-15T09:32:29.942Z,101.25
2018-05-15T09:33:29.975Z,101.25
2018-05-15T09:34:30.019Z,101.25
2018-05-15T09:35:29.712Z,101.25
2018-05-15T09:36:29.510Z,101.25
2018-05-15T09:37:30.101Z,101.25
2018-05-15T09:38:29.637Z,101.25
2018-05-15T09:39:29.521Z,101.25
2018-05-15T09:40:29.781Z,106.88
2018-05-15T09:41:29.705Z,106.88
2018-05-15T09:42:29.617Z,101.25
2018-05-15T09:43:28.784Z,101.25
2018-05-15T09:44:29.968Z,101.25
2018-05-15T09:45:29.715Z,106.88
2018-05-15T09:46:29.421Z,112.50
2018-05-15T09:47:29.675Z,118.13
2018-05-15T09:48:29.217Z,118.13
2018-05-15T09:49:29.465Z,118.13
2018-05-15T09:50:29.517Z,123.75
2018-05-15T09:51:29.689Z,123.75
2018-05-15T09:52:29.705Z,123.75
2018-05-15T09:53:29.672Z,129.38
2018-05-15T09:54:30.152Z,135.00
2018-05-15T09:55:31.279Z,135.00
2018-05-15T09:56:30.091Z,135.00
2018-05-15T09:57:30.813Z,135.00
2018-05-15T09:58:29.443Z,129.38
2018-05-15T09:59:30.010Z,129.38
2018-05-15T10:00:29.446Z,135.00
2018-05-15T10:01:29.464Z,135.00
2018-05-15T10:02:29.430Z,135.00
2018-05-15T10:03:29.724Z,129.38
2018-05-15T10:04:30.081Z,129.38
2018-05-15T10:05:29.792Z,129.38
2018-05-15T10:06:30.187Z,129.38
2018-05-15T10:07:29.467Z,135.00
2018-05-15T10:08:29.986Z,135.00
2018-05-15T10:09:29.632Z,135.00
2018-05-15T10:10:29.663Z,135.00
2018-05-15T10:11:29.634Z,135.00
2018-05-15T10:12:29.713Z,135.00
2018-05-15T10:13:29.587Z,135.00
2018-05-15T10:14:29.995Z,140.63
2018-05-15T10:15:30.184Z,140.63
2018-05-15T10:16:29.963Z,140.63
2018-05-15T10:17:30.036Z,140.63
2018-05-15T10:18:29.639Z,140.63
2018-05-15T10:19:29.992Z,140.63
2018-05-15T10:20:29.732Z,146.25
2018-05-15T10:21:29.521Z,146.25
2018-05-15T10:22:29.691Z,151.88
2018-05-15T10:23:29.694Z,151.88
2018-05-15T10:24:32.210Z,163.13
2018-05-15T10:25:30.047Z,168.75
2018-05-15T10:26:29.986Z,174.38
2018-05-15T10:27:29.969Z,168.75
2018-05-15T10:28:29.524Z,163.13
2018-05-15T10:29:29.895Z,157.50
2018-05-15T10:30:29.687Z,168.75
2018-05-15T10:31:29.772Z,174.38
2018-05-15T10:32:32.206Z,174.38
2018-05-15T10:33:29.628Z,174.38
2018-05-15T10:34:29.724Z,180.00
2018-05-15T10:35:30.023Z,191.25
2018-05-15T10:36:29.749Z,185.63
2018-05-15T10:37:30.022Z,191.25
2018-05-15T10:38:31.238Z,191.25
2018-05-15T10:39:29.469Z,191.25
2018-05-15T10:40:31.234Z,191.25
2018-05-15T10:41:29.434Z,185.63
2018-05-15T10:42:28.738Z,191.25
2018-05-15T10:43:35.506Z,191.25
2018-05-15T10:44:29.474Z,191.25
2018-05-15T10:45:29.428Z,196.88
2018-05-15T10:46:29.909Z,191.25
2018-05-15T10:47:29.737Z,185.63
2018-05-15T10:48:29.701Z,185.63
2018-05-15T10:49:29.971Z,185.63
2018-05-15T10:50:29.515Z,185.63
2018-05-15T10:51:29.600Z,191.25
2018-05-15T10:53:30.140Z,185.63
2018-05-15T10:54:30.101Z,185.63
2018-05-15T10:55:29.679Z,185.63
2018-05-15T10:56:30.297Z,191.25
2018-05-15T10:57:29.719Z,185.63
2018-05-15T10:58:30.106Z,185.63
2018-05-15T10:59:29.754Z,185.63
2018-05-15T11:00:29.749Z,185.63
2018-05-15T11:01:30.337Z,185.63
2018-05-15T11:02:29.513Z,191.25
2018-05-15T11:03:30.215Z,196.88
2018-05-15T11:04:29.819Z,202.50
2018-05-15T11:05:29.751Z,202.50
2018-05-15T11:06:29.444Z,208.13
2018-05-15T11:07:30.133Z,213.75
2018-05-15T11:08:30.170Z,202.50
2018-05-15T11:09:32.031Z,185.63
2018-05-15T11:10:29.958Z,202.50
2018-05-15T11:11:29.530Z,213.75
2018-05-15T11:12:29.795Z,219.38
2018-05-15T11:13:30.195Z,213.75
2018-05-15T11:14:29.216Z,208.13
2018-05-15T11:15:30.098Z,202.50
2018-05-15T11:16:29.301Z,202.50
2018-05-15T11:17:29.467Z,191.25
2018-05-15T11:18:29.724Z,196.88
2018-05-15T11:19:29.280Z,213.75
2018-05-15T11:20:31.749Z,219.38
2018-05-15T11:21:30.116Z,208.13
2018-05-15T11:22:30.213Z,196.88
2018-05-15T11:23:30.218Z,168.75
2018-05-15T11:24:29.832Z,180.00
2018-05-15T11:25:30.139Z,185.63
2018-05-15T11:26:30.225Z,185.63
2018-05-15T11:27:29.737Z,191.25
2018-05-15T11:28:30.257Z,202.50
2018-05-15T11:29:29.576Z,202.50
2018-05-15T11:30:29.792Z,208.13
2018-05-15T11:31:29.766Z,208.13
2018-05-15T11:32:29.816Z,208.13
2018-05-15T11:33:30.066Z,202.50
2018-05-15T11:34:30.252Z,196.88
2018-05-15T11:35:29.293Z,191.25
2018-05-15T11:36:30.250Z,185.63
2018-05-15T11:37:29.791Z,185.63
2018-05-15T11:38:30.143Z,185.63
2018-05-15T11:39:30.186Z,185.63
2018-05-15T11:40:30.351Z,180.00
2018-05-15T11:41:30.317Z,180.00
2018-05-15T11:42:30.327Z,180.00
2018-05-15T11:43:30.622Z,180.00
2018-05-15T11:44:30.181Z,180.00
2018-05-15T11:45:30.438Z,180.00
2018-05-15T11:46:29.725Z,180.00
2018-05-15T11:47:30.595Z,180.00
2018-05-15T11:48:30.047Z,180.00
2018-05-15T11:49:31.511Z,180.00
2018-05-15T11:50:30.883Z,185.63
2018-05-15T11:51:31.569Z,185.63
2018-05-15T11:52:31.546Z,185.63
2018-05-15T11:53:30.271Z,191.25
2018-05-15T11:54:30.687Z,191.25
2018-05-15T11:55:35.292Z,191.25
2018-05-15T11:56:30.098Z,191.25
2018-05-15T11:57:29.790Z,196.88
2018-05-15T11:58:30.527Z,196.88
2018-05-15T11:59:30.195Z,202.50
2018-05-15T12:00:30.198Z,196.88
2018-05-15T12:01:30.857Z,196.88
2018-05-15T12:02:30.643Z,202.50
2018-05-15T12:03:30.557Z,202.50
2018-05-15T12:04:30.541Z,202.50
2018-05-15T12:05:30.542Z,202.50
2018-05-15T12:06:30.770Z,208.13
2018-05-15T12:07:30.238Z,219.38
2018-05-15T12:08:30.596Z,241.88
2018-05-15T12:09:30.199Z,275.63
2018-05-15T12:10:30.729Z,646.88
2018-05-15T12:11:29.653Z,1254.38
2018-05-15T12:12:29.948Z,1721.25
2018-05-15T12:13:30.309Z,1749.38
2018-05-15T12:14:30.753Z,1732.50
2018-05-15T12:15:30.298Z,1816.88
2018-05-15T12:16:30.278Z,1777.50
2018-05-15T12:17:30.035Z,1766.25
2018-05-15T12:18:30.029Z,1918.13
2018-05-15T12:19:29.994Z,1906.88
2018-05-15T12:20:30.246Z,1805.63
2018-05-15T12:21:29.752Z,1878.75
2018-05-15T12:22:30.779Z,2019.38
2018-05-15T12:23:30.301Z,2036.25
2018-05-15T12:24:30.731Z,1771.88
2018-05-15T12:25:29.809Z,1715.63
2018-05-15T12:26:30.296Z,1906.88
2018-05-15T12:27:30.783Z,2019.38
2018-05-15T12:28:30.527Z,2047.50
2018-05-15T12:29:30.295Z,1980.00
2018-05-15T12:30:30.298Z,1923.75
2018-05-15T12:31:30.247Z,1940.63
2018-05-15T12:32:30.204Z,1653.75
2018-05-15T12:33:30.508Z,1828.13
2018-05-15T12:34:30.276Z,1884.38
2018-05-15T12:35:31.096Z,2081.25
2018-05-15T12:36:30.265Z,1963.13
2018-05-15T12:37:30.570Z,1985.63
2018-05-15T12:38:30.205Z,1974.38
2018-05-15T12:39:30.558Z,1890.00
2018-05-15T12:40:30.765Z,2081.25
2018-05-15T12:41:32.089Z,2075.63
2018-05-15T12:42:32.574Z,2008.13
2018-05-15T12:43:30.715Z,2238.75
2018-05-15T12:44:30.688Z,2120.63
2018-05-15T12:45:30.578Z,1980.00
2018-05-15T12:46:31.407Z,2058.75
2018-05-15T12:47:30.540Z,2081.25
2018-05-15T12:48:30.792Z,2109.38
2018-05-15T12:49:31.102Z,2070.00
2018-05-15T12:50:30.666Z,2131.88
2018-05-15T12:51:30.633Z,2143.13
2018-05-15T12:52:31.084Z,2064.38
2018-05-15T12:53:30.791Z,2126.25
2018-05-15T12:54:30.729Z,2103.75
2018-05-15T12:55:30.812Z,2115.00